Latest Weather Observations for Hay Point

IDQ60801

Issued at 12:02 pm EST Saturday 25 April 2015 (issued every 30 minutes, with the page automatically refreshed every 10 minutes)

About weather observations | Map of weather stations | Latest weather observations for QLD | Other Formats
Station Details ID: 033317 Name: HAY POINT Lat: -21.29 Lon: 149.30 Height: 7.0 m
Data from the previous 72 hours. | See also: Recent months for locations in Queensland
Date/Time
EST
Temp
°C
App
Temp
°C
Dew
Point
Rel
Hum
%
Delta-T
°C
Wind Press
QNH
hPa
Press
MSL
hPa
Rain
since 9 am
mm
Dir
 
Spd
km/h
Gust
km/h
Spd
kts
Gust
kts
25/12:00pm - - - - - N 19 20 10 11 - - -
25/11:30am - - - - - N 19 20 10 11 - - -
25/11:00am - - - - - N 19 22 10 12 - - -
25/10:30am - - - - - N 19 22 10 12 - - -
25/10:00am - - - - - NNW 17 20 9 11 - - -
25/09:30am - - - - - NW 17 22 9 12 - - -
25/09:00am - - - - - WNW 13 17 7 9 - - -
25/08:30am - - - - - WNW 11 17 6 9 - - -
25/08:00am - - - - - WSW 11 13 6 7 - - -
25/07:30am - - - - - W 11 11 6 6 - - -
25/07:00am - - - - - W 13 15 7 8 - - -
25/06:30am - - - - - W 11 13 6 7 - - -
25/06:00am - - - - - WNW 9 11 5 6 - - -
25/05:30am - - - - - WNW 9 11 5 6 - - -
25/05:00am - - - - - W 6 7 3 4 - - -
25/04:30am - - - - - WNW 9 9 5 5 - - -
25/04:00am - - - - - W 9 11 5 6 - - -
25/03:30am - - - - - WNW 9 9 5 5 - - -
25/03:00am - - - - - NW 7 9 4 5 - - -
25/02:30am - - - - - W 2 7 1 4 - - -
25/02:00am - - - - - W 7 7 4 4 - - -
25/01:30am - - - - - W 6 7 3 4 - - -
25/01:00am - - - - - W 11 13 6 7 - - -
25/12:30am - - - - - WSW 11 15 6 8 - - -
25/12:00am - - - - - W 9 11 5 6 - - -
 
Date/Time
EST
Temp
°C
App
Temp
°C
Dew
Point
Rel
Hum
%
Delta-T
°C
Wind Press
QNH
hPa
Press
MSL
hPa
Rain
since 9 am
mm
Dir
 
Spd
km/h
Gust
km/h
Spd
kts
Gust
kts
24/11:30pm - - - - - W 13 17 7 9 - - -
24/11:00pm - - - - - WNW 11 13 6 7 - - -
24/10:30pm - - - - - WNW 13 15 7 8 - - -
24/10:00pm - - - - - W 13 13 7 7 - - -
24/09:30pm - - - - - W 11 13 6 7 - - -
24/09:00pm - - - - - WNW 9 11 5 6 - - -
24/08:30pm - - - - - WNW 7 9 4 5 - - -
24/08:00pm - - - - - NW 4 7 2 4 - - -
24/07:30pm - - - - - NNE 11 13 6 7 - - -
24/07:00pm - - - - - NNE 11 13 6 7 - - -
24/06:30pm - - - - - NNE 11 15 6 8 - - -
24/06:00pm - - - - - NNE 15 19 8 10 - - -
24/05:30pm - - - - - NE 15 17 8 9 - - -
24/05:00pm - - - - - NE 15 19 8 10 - - -
24/04:30pm - - - - - NE 17 20 9 11 - - -
24/04:00pm - - - - - NE 17 22 9 12 - - -
24/03:30pm - - - - - NE 20 26 11 14 - - -
24/03:00pm - - - - - NE 20 24 11 13 - - -
24/02:30pm - - - - - NE 20 24 11 13 - - -
24/02:00pm - - - - - NE 19 22 10 12 - - -
24/01:30pm - - - - - NE 19 20 10 11 - - -
24/01:00pm - - - - - NE 19 20 10 11 - - -
24/12:30pm - - - - - NE 17 17 9 9 - - -
24/12:00pm - - - - - NNE 17 19 9 10 - - -
24/11:30am - - - - - N 15 17 8 9 - - -
24/11:00am - - - - - N 17 20 9 11 - - -
24/10:30am - - - - - NW 9 13 5 7 - - -
24/10:00am - - - - - NW 13 17 7 9 - - -
24/09:30am - - - - - WNW 15 19 8 10 - - -
24/09:00am - - - - - W 19 22 10 12 - - -
24/08:30am - - - - - W 19 20 10 11 - - -
24/08:00am - - - - - W 17 19 9 10 - - -
24/07:30am - - - - - W 15 19 8 10 - - -
24/07:00am - - - - - W 15 17 8 9 - - -
24/06:30am - - - - - W 11 15 6 8 - - -
24/06:00am - - - - - W 13 15 7 8 - - -
24/05:30am - - - - - W 11 13 6 7 - - -
24/05:00am - - - - - W 11 11 6 6 - - -
24/04:30am - - - - - WSW 15 17 8 9 - - -
24/04:00am - - - - - W 17 19 9 10 - - -
24/03:30am - - - - - W 13 15 7 8 - - -
24/03:00am - - - - - W 13 13 7 7 - - -
24/02:30am - - - - - WSW 13 15 7 8 - - -
24/02:00am - - - - - WSW 9 11 5 6 - - -
24/01:30am - - - - - WSW 7 9 4 5 - - -
24/01:00am - - - - - WSW 11 13 6 7 - - -
24/12:30am - - - - - WSW 13 17 7 9 - - -
24/12:00am - - - - - WSW 13 15 7 8 - - -
 
Date/Time
EST
Temp
°C
App
Temp
°C
Dew
Point
Rel
Hum
%
Delta-T
°C
Wind Press
QNH
hPa
Press
MSL
hPa
Rain
since 9 am
mm
Dir
 
Spd
km/h
Gust
km/h
Spd
kts
Gust
kts
23/11:30pm - - - - - W 13 15 7 8 - - -
23/11:00pm - - - - - WSW 15 19 8 10 - - -
23/10:30pm - - - - - W 15 17 8 9 - - -
23/10:00pm - - - - - WNW 7 9 4 5 - - -
23/09:30pm - - - - - WSW 6 9 3 5 - - -
23/09:00pm - - - - - SW 7 7 4 4 - - -
23/08:30pm - - - - - SW 9 9 5 5 - - -
23/08:00pm - - - - - SSE 9 13 5 7 - - -
23/07:30pm - - - - - E 11 15 6 8 - - -
23/07:00pm - - - - - E 13 17 7 9 - - -
23/06:30pm - - - - - E 17 19 9 10 - - -
23/06:00pm - - - - - ESE 13 17 7 9 - - -
23/05:30pm - - - - - SE 15 20 8 11 - - -
23/05:00pm - - - - - ESE 17 20 9 11 - - -
23/04:30pm - - - - - ESE 20 26 11 14 - - -
23/04:00pm - - - - - ESE 22 28 12 15 - - -
23/03:30pm - - - - - ESE 24 30 13 16 - - -
23/03:00pm - - - - - ESE 26 30 14 16 - - -
23/02:30pm - - - - - ESE 26 30 14 16 - - -
23/02:00pm - - - - - ESE 26 30 14 16 - - -
23/01:30pm - - - - - ESE 26 30 14 16 - - -
23/01:00pm - - - - - ESE 24 32 13 17 - - -
23/12:30pm - - - - - SE 24 32 13 17 - - -
23/12:00pm - - - - - SSE 22 30 12 16 - - -
23/11:30am - - - - - SSE 26 33 14 18 - - -
23/11:00am - - - - - SSE 26 30 14 16 - - -
23/10:30am - - - - - S 19 28 10 15 - - -
23/10:00am - - - - - SSW 24 32 13 17 - - -
23/09:30am - - - - - S 24 33 13 18 - - -
23/09:00am - - - - - SSW 26 32 14 17 - - -
23/08:30am - - - - - SSW 24 30 13 16 - - -
23/08:00am - - - - - SSW 20 26 11 14 - - -
23/07:30am - - - - - SW 17 22 9 12 - - -
23/07:00am - - - - - SW 17 22 9 12 - - -
23/06:30am - - - - - SSW 20 26 11 14 - - -
23/06:00am - - - - - SSW 20 26 11 14 - - -
23/05:30am - - - - - SSW 17 20 9 11 - - -
23/05:00am - - - - - SW 19 24 10 13 - - -
23/04:30am - - - - - SW 17 22 9 12 - - -
23/04:00am - - - - - SSW 20 26 11 14 - - -
23/03:30am - - - - - SW 19 22 10 12 - - -
23/03:00am - - - - - SW 19 26 10 14 - - -
23/02:30am - - - - - SW 17 22 9 12 - - -
23/02:00am - - - - - SW 17 24 9 13 - - -
23/01:30am - - - - - SSW 20 26 11 14 - - -
23/01:00am - - - - - SSW 24 30 13 16 - - -
23/12:30am - - - - - SSW 22 30 12 16 - - -
23/12:00am - - - - - SW 17 20 9 11 - - -
 
Date/Time
EST
Temp
°C
App
Temp
°C
Dew
Point
Rel
Hum
%
Delta-T
°C
Wind Press
QNH
hPa
Press
MSL
hPa
Rain
since 9 am
mm
Dir
 
Spd
km/h
Gust
km/h
Spd
kts
Gust
kts
22/11:30pm - - - - - SSW 13 17 7 9 - - -
22/11:00pm - - - - - SSW 11 15 6 8 - - -
22/10:30pm - - - - - SSW 11 15 6 8 - - -
22/10:00pm - - - - - SW 11 13 6 7 - - -
22/09:30pm - - - - - SW 13 17 7 9 - - -
22/09:00pm - - - - - SW 15 17 8 9 - - -
22/08:30pm - - - - - SW 13 15 7 8 - - -
22/08:00pm - - - - - SW 13 13 7 7 - - -
22/07:30pm - - - - - SW 13 15 7 8 - - -
22/07:00pm - - - - - SSE 17 22 9 12 - - -
22/06:30pm - - - - - SSE 17 22 9 12 - - -
22/06:00pm - - - - - SSE 19 24 10 13 - - -
22/05:30pm - - - - - SE 20 28 11 15 - - -
22/05:00pm - - - - - SE 20 28 11 15 - - -
22/04:30pm - - - - - SE 22 30 12 16 - - -
22/04:00pm - - - - - SSE 22 30 12 16 - - -
22/03:30pm - - - - - SE 20 30 11 16 - - -
22/03:00pm - - - - - SE 20 26 11 14 - - -
22/02:30pm - - - - - ESE 22 28 12 15 - - -
22/02:00pm - - - - - SE 20 28 11 15 - - -
22/01:30pm - - - - - ESE 22 28 12 15 - - -
22/01:00pm - - - - - ESE 22 28 12 15 - - -
22/12:30pm - - - - - ESE 22 28 12 15 - - -

Other Formats:

Comma delimited format used in spreadsheet applications
http://www.bom.gov.au/fwo/IDQ60801/IDQ60801.99367.axf

JavaScript Object Notation format (JSON) in row-major order
http://www.bom.gov.au/fwo/IDQ60801/IDQ60801.99367.json